Time;durP1;ratioP1;P1;durP2;ratioP2;P2;SDS_P1;SDS_P2;PMS_P1;PMS_P2;Temp;Humidity;BMP_temperature;BMP_pressure;BME280_temperature;BME280_humidity;BME280_pressure;Samples;Min_cycle;Max_cycle;Signal;HPM_P1;HPM_P2
2022/05/25 00:01:25;;;;;;;;;;;;;;;18.88;79.28;99585.41;5008861;28;19923;-82
2022/05/25 00:03:51;;;;;;;;;;;;;;;19.01;79.05;99584.78;5008564;28;19997;-82
2022/05/25 00:06:16;;;;;;;;;;;;;;;18.90;79.65;99588.00;5008567;28;19961;-82
2022/05/25 00:08:42;;;;;;;;;;;;;;;18.94;79.24;99582.44;5008364;28;19964;-82
2022/05/25 00:11:08;;;;;;;;;;;;;;;18.85;79.76;99590.06;5009248;28;19922;-82
2022/05/25 00:13:34;;;;;;;;;;;;;;;18.84;79.29;99596.31;5007561;28;20036;-82
2022/05/25 00:15:59;;;;;;;;;;;;;;;18.95;78.75;99602.88;5008423;28;20024;-82
2022/05/25 00:18:25;;;;;;;;;;;;;;;18.63;79.46;99601.78;5007842;28;19917;-80
2022/05/25 00:20:51;;;;;;;;;;;;;;;18.63;79.71;99604.47;5008142;28;20378;-81
2022/05/25 00:23:16;;;;;;;;;;;;;;;18.61;79.76;99609.00;5007537;28;20678;-81
2022/05/25 00:25:41;;;;;;;;;;;;;;;18.57;79.60;99600.28;5006546;28;19918;-81
2022/05/25 00:28:08;;;;;;;;;;;;;;;18.56;79.39;99611.03;4989937;28;19929;-81
2022/05/25 00:30:34;;;;;;;;;;;;;;;18.64;78.98;99616.88;5007436;28;20485;-81
2022/05/25 00:33:01;;;;;;;;;;;;;;;18.63;78.96;99609.81;5007757;28;19921;-81
2022/05/25 00:35:28;;;;;;;;;;;;;;;18.73;78.16;99607.53;5007039;28;19928;-82
2022/05/25 00:37:53;;;;;;;;;;;;;;;18.63;77.88;99614.28;5008083;28;20481;-82
2022/05/25 00:40:24;;;;;;;;;;;;;;;18.47;78.47;99617.69;5007027;28;19921;-82
2022/05/25 00:42:50;;;;;;;;;;;;;;;18.38;79.13;99621.69;4989832;28;20011;-82
2022/05/25 00:45:15;;;;;;;;;;;;;;;18.46;78.36;99618.66;5007821;28;19917;-82
2022/05/25 00:47:42;;;;;;;;;;;;;;;18.54;78.15;99611.13;4989025;28;20506;-82
2022/05/25 00:50:09;;;;;;;;;;;;;;;18.42;78.48;99622.41;5007977;28;20024;-82
2022/05/25 00:52:34;;;;;;;;;;;;;;;18.19;79.94;99621.69;5008407;28;20004;-82
2022/05/25 00:55:02;;;;;;;;;;;;;;;18.28;79.60;99622.22;5007765;28;20016;-82
2022/05/25 00:57:30;;;;;;;;;;;;;;;18.15;80.95;99619.25;4988897;28;19952;-82
2022/05/25 01:00:04;;;;;;;;;;;;;;;18.34;80.28;99629.94;5007565;28;20715;-82
2022/05/25 01:02:31;;;;;;;;;;;;;;;18.29;80.10;99622.13;5006224;28;19929;-83
2022/05/25 01:04:56;;;;;;;;;;;;;;;18.11;80.68;99623.88;5006715;28;19921;-82
2022/05/25 01:07:36;;;;;;;;;;;;;;;17.91;81.94;99630.13;5007274;28;20016;-82
2022/05/25 01:10:14;;;;;;;;;;;;;;;17.78;83.29;99642.25;5007780;28;19917;-82
2022/05/25 01:12:42;;;;;;;;;;;;;;;17.72;83.39;99638.94;5007503;28;19972;-82
2022/05/25 01:15:29;;;;;;;;;;;;;;;17.66;84.55;99643.72;5007232;28;20410;-82
2022/05/25 01:17:55;;;;;;;;;;;;;;;17.70;83.48;99637.28;5006943;28;19921;-82
2022/05/25 01:20:23;;;;;;;;;;;;;;;17.46;84.25;99642.78;5007324;28;22200;-82
2022/05/25 01:23:07;;;;;;;;;;;;;;;17.44;84.39;99647.34;5007919;28;19913;-82
2022/05/25 01:25:41;;;;;;;;;;;;;;;17.42;84.21;99643.84;4989172;28;19922;-81
2022/05/25 01:28:15;;;;;;;;;;;;;;;17.43;84.25;99652.72;4988175;28;20023;-81
2022/05/25 01:30:44;;;;;;;;;;;;;;;17.63;83.46;99657.19;4986907;28;20020;-82
2022/05/25 01:33:09;;;;;;;;;;;;;;;17.38;84.22;99657.38;4988582;28;19917;-82
2022/05/25 01:35:37;;;;;;;;;;;;;;;17.51;84.04;99666.59;5007021;28;20405;-82
2022/05/25 01:38:13;;;;;;;;;;;;;;;17.43;84.25;99666.91;5007935;28;19913;-82
2022/05/25 01:40:50;;;;;;;;;;;;;;;17.31;82.81;99675.44;5006568;28;19925;-81
2022/05/25 01:43:24;;;;;;;;;;;;;;;17.30;83.33;99674.59;5006318;28;19928;-81
2022/05/25 01:45:52;;;;;;;;;;;;;;;17.33;82.46;99671.78;5007501;28;20075;-81
2022/05/25 01:48:20;;;;;;;;;;;;;;;17.17;82.47;99668.91;4985311;28;19917;-82
2022/05/25 01:50:48;;;;;;;;;;;;;;;17.17;83.38;99668.91;4987956;28;20032;-82
2022/05/25 01:53:15;;;;;;;;;;;;;;;17.37;82.21;99667.19;4989589;28;20798;-82
2022/05/25 01:55:45;;;;;;;;;;;;;;;17.17;83.12;99663.56;5007868;28;19917;-82
2022/05/25 01:58:13;;;;;;;;;;;;;;;16.99;84.42;99664.34;5010075;28;19918;-82
2022/05/25 02:00:44;;;;;;;;;;;;;;;16.95;84.75;99666.28;4992877;28;21608;-83
2022/05/25 02:05:56;;;;;;;;;;;;;;;17.15;84.06;99677.91;5010122;28;19944;-82
2022/05/25 02:08:28;;;;;;;;;;;;;;;17.45;82.60;99677.53;5010557;28;20022;-82
2022/05/25 02:11:05;;;;;;;;;;;;;;;17.48;81.83;99682.72;5009710;28;19910;-82
2022/05/25 02:13:40;;;;;;;;;;;;;;;17.48;82.63;99677.38;5009767;28;20394;-82
2022/05/25 02:16:24;;;;;;;;;;;;;;;17.44;82.89;99681.09;5010136;28;19921;-83
2022/05/25 02:19:11;;;;;;;;;;;;;;;17.48;82.53;99685.38;5009146;28;20460;-83
2022/05/25 02:21:42;;;;;;;;;;;;;;;17.57;81.86;99687.66;5010793;28;19921;-82
2022/05/25 02:24:07;;;;;;;;;;;;;;;17.38;82.48;99689.38;5010199;28;19957;-82
2022/05/25 02:26:39;;;;;;;;;;;;;;;17.44;82.69;99686.44;5009326;28;19963;-83
2022/05/25 02:29:29;;;;;;;;;;;;;;;17.47;82.31;99696.97;5010774;28;19924;-83
2022/05/25 02:31:57;;;;;;;;;;;;;;;17.63;81.42;99699.88;5009378;28;19971;-83
2022/05/25 02:34:24;;;;;;;;;;;;;;;17.65;81.42;99704.16;5009789;28;19928;-82
2022/05/25 02:36:50;;;;;;;;;;;;;;;17.63;80.80;99702.53;5010331;28;19925;-82
2022/05/25 02:39:16;;;;;;;;;;;;;;;17.60;81.37;99702.66;5009427;28;19917;-83
2022/05/25 02:41:45;;;;;;;;;;;;;;;17.45;81.34;99709.53;5010162;28;19917;-82
2022/05/25 02:44:12;;;;;;;;;;;;;;;17.41;81.19;99710.56;5009574;28;19921;-82
2022/05/25 02:46:37;;;;;;;;;;;;;;;17.29;81.95;99709.31;5009802;28;19940;-83
2022/05/25 02:49:03;;;;;;;;;;;;;;;17.35;81.57;99714.38;5008504;28;19921;-83
2022/05/25 02:51:28;;;;;;;;;;;;;;;17.36;81.64;99718.75;5009626;28;19917;-83
2022/05/25 02:53:53;;;;;;;;;;;;;;;17.24;81.70;99724.63;5009126;28;19928;-83
2022/05/25 02:56:19;;;;;;;;;;;;;;;17.16;82.54;99731.16;5009124;28;19920;-83
2022/05/25 02:58:44;;;;;;;;;;;;;;;17.09;82.67;99726.16;5010291;28;19918;-80
2022/05/25 03:01:09;;;;;;;;;;;;;;;17.12;82.88;99732.19;5009039;28;19921;-82
2022/05/25 03:03:36;;;;;;;;;;;;;;;17.18;82.46;99729.28;5007744;28;19932;-86
2022/05/25 03:06:02;;;;;;;;;;;;;;;17.31;82.02;99721.63;5009751;28;20387;-88
2022/05/25 03:08:27;;;;;;;;;;;;;;;17.25;82.21;99735.22;5008994;28;19924;-81
2022/05/25 03:10:53;;;;;;;;;;;;;;;17.32;81.69;99735.84;5009728;28;19984;-82
2022/05/25 03:13:18;;;;;;;;;;;;;;;17.44;81.77;99730.00;4991372;28;19932;-82
2022/05/25 03:15:43;;;;;;;;;;;;;;;17.32;81.79;99739.38;5008753;28;20746;-85
2022/05/25 03:18:09;;;;;;;;;;;;;;;17.36;81.63;99740.97;5009144;28;20395;-81
2022/05/25 03:20:34;;;;;;;;;;;;;;;17.27;82.39;99741.38;5010025;28;20307;-81
2022/05/25 03:22:59;;;;;;;;;;;;;;;17.22;82.85;99739.81;4991772;28;20481;-82
2022/05/25 03:25:25;;;;;;;;;;;;;;;17.42;81.22;99742.50;5007540;28;19921;-82
2022/05/25 03:27:50;;;;;;;;;;;;;;;17.00;82.64;99754.03;5009725;28;20058;-82
2022/05/25 03:30:17;;;;;;;;;;;;;;;16.78;83.65;99749.53;5009709;28;19913;-80
2022/05/25 03:32:42;;;;;;;;;;;;;;;16.78;83.32;99752.19;5008716;28;20008;-79
2022/05/25 03:35:09;;;;;;;;;;;;;;;16.80;83.27;99757.47;5008940;28;20007;-80
2022/05/25 03:37:34;;;;;;;;;;;;;;;16.85;83.64;99767.94;5009365;28;19921;-82
2022/05/25 03:39:59;;;;;;;;;;;;;;;16.88;83.04;99766.03;5009077;28;19913;-82
2022/05/25 03:42:25;;;;;;;;;;;;;;;16.81;82.63;99775.19;5009770;28;20660;-82
2022/05/25 03:44:51;;;;;;;;;;;;;;;16.68;83.05;99769.44;5009021;28;19921;-82
2022/05/25 03:47:16;;;;;;;;;;;;;;;16.69;83.30;99778.31;5007994;28;19932;-83
2022/05/25 03:49:41;;;;;;;;;;;;;;;16.57;84.68;99777.84;5009120;28;19981;-83
2022/05/25 03:52:07;;;;;;;;;;;;;;;16.70;84.68;99775.59;5008390;28;20341;-85
2022/05/25 03:54:32;;;;;;;;;;;;;;;16.80;84.58;99784.09;5008700;28;19919;-81
2022/05/25 03:56:58;;;;;;;;;;;;;;;16.75;84.67;99783.41;5008988;28;19975;-82
2022/05/25 03:59:24;;;;;;;;;;;;;;;16.89;84.12;99781.09;5008519;28;19921;-81
2022/05/25 04:01:50;;;;;;;;;;;;;;;17.01;83.69;99779.75;4991026;28;19928;-82
2022/05/25 04:04:16;;;;;;;;;;;;;;;17.04;82.90;99789.41;5008711;28;19931;-81
2022/05/25 04:06:41;;;;;;;;;;;;;;;16.93;82.39;99792.50;5008590;28;19960;-80
2022/05/25 04:09:09;;;;;;;;;;;;;;;16.87;81.51;99793.63;5009092;28;19921;-81
2022/05/25 04:11:34;;;;;;;;;;;;;;;16.67;81.69;99801.47;5008618;28;19995;-81
2022/05/25 04:14:00;;;;;;;;;;;;;;;16.87;81.02;99798.06;5009058;28;19921;-82
2022/05/25 04:16:25;;;;;;;;;;;;;;;16.79;81.37;99808.97;5008213;28;19921;-81
2022/05/25 04:18:51;;;;;;;;;;;;;;;16.87;80.87;99803.38;5007663;28;20000;-80
2022/05/25 04:21:16;;;;;;;;;;;;;;;16.87;80.15;99814.03;5007533;28;20395;-81
2022/05/25 04:23:41;;;;;;;;;;;;;;;16.74;80.67;99809.16;5007739;28;19917;-80
2022/05/25 04:26:07;;;;;;;;;;;;;;;16.83;80.97;99818.59;5008795;28;19999;-81
2022/05/25 04:28:32;;;;;;;;;;;;;;;16.78;80.57;99805.47;5008334;28;20355;-81
2022/05/25 04:30:57;;;;;;;;;;;;;;;16.73;81.10;99812.78;5002313;28;19922;-81
2022/05/25 04:33:25;;;;;;;;;;;;;;;16.63;81.40;99814.91;5014110;28;19924;-82
2022/05/25 04:35:50;;;;;;;;;;;;;;;16.48;82.20;99807.50;5007909;28;19917;-81
2022/05/25 04:38:16;;;;;;;;;;;;;;;16.57;81.65;99809.81;5007379;28;19917;-83
2022/05/25 04:40:42;;;;;;;;;;;;;;;16.45;82.54;99820.91;5007150;28;19917;-83
2022/05/25 04:43:10;;;;;;;;;;;;;;;16.58;82.80;99816.88;5006997;28;19964;-82
2022/05/25 04:45:37;;;;;;;;;;;;;;;16.64;82.75;99813.13;5007176;28;19921;-82
2022/05/25 04:48:03;;;;;;;;;;;;;;;16.71;82.53;99819.94;5004375;28;19917;-82
2022/05/25 04:50:30;;;;;;;;;;;;;;;16.62;83.34;99829.16;5006880;28;19967;-82
2022/05/25 04:52:59;;;;;;;;;;;;;;;16.54;83.15;99830.38;5006640;28;19925;-83
2022/05/25 04:58:19;;;;;;;;;;;;;;;16.54;84.33;99817.91;5002610;28;19927;-81
2022/05/25 05:00:44;;;;;;;;;;;;;;;16.79;83.65;99822.31;5007351;28;19917;-82
2022/05/25 05:03:10;;;;;;;;;;;;;;;17.00;82.83;99824.16;5006367;28;19921;-81
2022/05/25 05:05:35;;;;;;;;;;;;;;;16.71;83.12;99825.25;5006929;28;19917;-81
2022/05/25 05:08:00;;;;;;;;;;;;;;;16.85;82.96;99827.41;5007444;28;19917;-82
2022/05/25 05:10:26;;;;;;;;;;;;;;;17.01;82.19;99841.03;5006523;28;19914;-81
2022/05/25 05:12:51;;;;;;;;;;;;;;;17.09;82.40;99844.25;5007577;28;20032;-82
2022/05/25 05:15:16;;;;;;;;;;;;;;;17.11;82.00;99845.06;5006823;28;19929;-82
2022/05/25 05:17:42;;;;;;;;;;;;;;;17.30;81.59;99847.88;5007266;28;19917;-82
2022/05/25 05:20:08;;;;;;;;;;;;;;;17.33;81.80;99844.19;5007942;28;19924;-82
2022/05/25 05:22:34;;;;;;;;;;;;;;;17.45;81.50;99854.38;5007551;28;19917;-82
2022/05/25 05:24:59;;;;;;;;;;;;;;;17.40;81.56;99845.69;5007842;28;20334;-82
2022/05/25 05:27:25;;;;;;;;;;;;;;;17.43;80.98;99848.25;4987430;28;19921;-82
2022/05/25 05:29:50;;;;;;;;;;;;;;;17.27;82.15;99849.78;5007347;28;19964;-82
2022/05/25 05:32:15;;;;;;;;;;;;;;;17.62;81.04;99855.47;4988153;28;20754;-82
2022/05/25 05:34:41;;;;;;;;;;;;;;;17.59;80.48;99856.47;5007327;28;20698;-83
2022/05/25 05:37:09;;;;;;;;;;;;;;;17.36;81.22;99852.06;5007724;28;19921;-83
2022/05/25 05:39:36;;;;;;;;;;;;;;;17.24;82.66;99855.22;5007565;28;19913;-83
2022/05/25 05:42:07;;;;;;;;;;;;;;;17.54;81.71;99863.81;5005305;28;19918;-82
2022/05/25 05:44:35;;;;;;;;;;;;;;;17.76;80.39;99866.44;5011469;28;19921;-82
2022/05/25 05:47:02;;;;;;;;;;;;;;;17.84;80.13;99861.66;5005575;28;19921;-83
2022/05/25 05:49:27;;;;;;;;;;;;;;;17.94;79.70;99870.16;4995219;28;20007;-82
2022/05/25 05:51:52;;;;;;;;;;;;;;;18.16;78.73;99867.44;5005466;28;20024;-82
2022/05/25 05:54:18;;;;;;;;;;;;;;;18.12;78.97;99865.84;5005452;28;20510;-82
2022/05/25 05:56:44;;;;;;;;;;;;;;;17.95;79.11;99866.56;5005803;28;20437;-82
2022/05/25 05:59:10;;;;;;;;;;;;;;;17.63;80.78;99859.91;5006918;28;19921;-82
2022/05/25 06:01:36;;;;;;;;;;;;;;;17.84;81.00;99866.13;5003371;28;19940;-82
2022/05/25 06:04:01;;;;;;;;;;;;;;;17.83;80.54;99865.25;5006152;28;19921;-82
2022/05/25 06:06:26;;;;;;;;;;;;;;;17.73;80.90;99866.56;5009969;28;20486;-82
2022/05/25 06:08:52;;;;;;;;;;;;;;;17.69;81.46;99862.31;5007029;28;19945;-81
2022/05/25 06:11:18;;;;;;;;;;;;;;;17.67;81.54;99864.16;5007201;28;20366;-82
2022/05/25 06:13:44;;;;;;;;;;;;;;;17.83;81.57;99861.72;4990004;28;20310;-81
2022/05/25 06:21:37;;;;;;;;;;;;;;;18.16;80.67;99877.25;5007168;28;19968;-82
2022/05/25 06:24:02;;;;;;;;;;;;;;;18.29;79.59;99869.56;5007335;28;19917;-82
2022/05/25 06:26:30;;;;;;;;;;;;;;;18.41;78.70;99867.25;5006805;28;19968;-82
2022/05/25 06:28:56;;;;;;;;;;;;;;;18.42;78.90;99878.78;5006883;28;19913;-82
2022/05/25 06:31:22;;;;;;;;;;;;;;;18.50;78.27;99878.44;5007453;28;20007;-82
2022/05/25 06:33:48;;;;;;;;;;;;;;;18.76;77.47;99874.59;4989709;28;20371;-82
2022/05/25 06:36:14;;;;;;;;;;;;;;;18.96;76.37;99876.34;5007117;28;19963;-82
2022/05/25 06:38:39;;;;;;;;;;;;;;;19.27;75.31;99889.13;5007357;28;19941;-82
2022/05/25 06:41:05;;;;;;;;;;;;;;;19.13;75.46;99886.25;5007033;28;19959;-82
2022/05/25 06:43:31;;;;;;;;;;;;;;;19.01;76.37;99881.50;5009505;28;19917;-82
2022/05/25 06:45:56;;;;;;;;;;;;;;;19.19;76.20;99874.41;5010640;28;19964;-83
2022/05/25 06:48:22;;;;;;;;;;;;;;;19.24;76.07;99883.06;5010298;28;19955;-82
2022/05/25 06:50:47;;;;;;;;;;;;;;;19.41;74.93;99888.47;5010173;28;19917;-82
2022/05/25 06:53:12;;;;;;;;;;;;;;;19.33;75.18;99882.63;5010415;28;19992;-82
2022/05/25 06:55:37;;;;;;;;;;;;;;;19.33;75.49;99882.63;5010610;28;20003;-83
2022/05/25 06:58:03;;;;;;;;;;;;;;;19.54;75.13;99891.44;5010110;28;19924;-83
2022/05/25 07:00:29;;;;;;;;;;;;;;;19.44;75.23;99888.31;5009520;28;19925;-83
2022/05/25 07:02:54;;;;;;;;;;;;;;;19.76;73.50;99891.22;5009832;28;20466;-82
2022/05/25 07:05:19;;;;;;;;;;;;;;;19.81;73.44;99891.88;5009075;28;20753;-82
2022/05/25 07:07:45;;;;;;;;;;;;;;;20.03;73.16;99890.81;5010789;28;19917;-83
2022/05/25 07:10:10;;;;;;;;;;;;;;;20.30;71.68;99895.69;5009077;28;19913;-82
2022/05/25 07:12:35;;;;;;;;;;;;;;;20.15;72.47;99897.34;5009727;28;20015;-82
2022/05/25 07:15:01;;;;;;;;;;;;;;;20.10;72.53;99897.59;5009725;28;19921;-82
2022/05/25 07:17:26;;;;;;;;;;;;;;;20.42;71.92;99892.38;5010384;28;20026;-81
2022/05/25 07:19:52;;;;;;;;;;;;;;;20.54;70.87;99886.38;5009364;28;19918;-82
2022/05/25 07:22:17;;;;;;;;;;;;;;;20.54;70.82;99891.72;5010152;28;20377;-82
2022/05/25 07:24:43;;;;;;;;;;;;;;;20.55;70.76;99889.91;5009760;28;19917;-82
2022/05/25 07:27:08;;;;;;;;;;;;;;;20.88;70.05;99895.31;5008995;28;19921;-82
2022/05/25 07:29:33;;;;;;;;;;;;;;;20.50;70.74;99900.88;5010070;28;19917;-82
2022/05/25 07:32:02;;;;;;;;;;;;;;;20.65;70.54;99895.66;5009507;28;20004;-82
2022/05/25 07:34:30;;;;;;;;;;;;;;;20.63;69.94;99897.53;5008947;28;19932;-83
2022/05/25 07:37:02;;;;;;;;;;;;;;;20.96;69.58;99904.72;5009725;28;19913;-83
2022/05/25 07:39:29;;;;;;;;;;;;;;;21.18;68.80;99901.72;5010175;28;20315;-83
2022/05/25 07:41:56;;;;;;;;;;;;;;;21.07;68.81;99902.34;5010055;28;19918;-83
2022/05/25 07:44:27;;;;;;;;;;;;;;;21.32;68.32;99903.63;5009278;28;20020;-83
2022/05/25 07:46:52;;;;;;;;;;;;;;;21.42;68.23;99899.47;5010174;28;20395;-84
2022/05/25 07:49:17;;;;;;;;;;;;;;;21.37;67.60;99901.56;5009136;28;19917;-83
2022/05/25 07:51:43;;;;;;;;;;;;;;;21.24;68.13;99907.63;5003474;28;19921;-83
2022/05/25 07:54:09;;;;;;;;;;;;;;;21.67;66.70;99906.16;4989106;28;19917;-83
2022/05/25 07:56:35;;;;;;;;;;;;;;;21.83;67.77;99909.69;4989535;28;20013;-82
2022/05/25 07:59:03;;;;;;;;;;;;;;;21.88;66.55;99909.41;4990089;28;20392;-83
2022/05/25 08:06:59;;;;;;;;;;;;;;;22.00;66.30;99914.94;4994457;28;19925;-83
2022/05/25 08:09:26;;;;;;;;;;;;;;;21.80;66.76;99907.19;5000728;28;19932;-84
2022/05/25 08:11:51;;;;;;;;;;;;;;;21.73;67.07;99906.66;5003986;28;19975;-83
2022/05/25 08:14:17;;;;;;;;;;;;;;;22.06;65.99;99913.72;5003605;28;20413;-84
2022/05/25 08:16:42;;;;;;;;;;;;;;;22.23;65.74;99914.50;5003884;28;19942;-84
2022/05/25 08:19:07;;;;;;;;;;;;;;;22.58;64.77;99906.16;5002740;28;19913;-83
2022/05/25 08:21:33;;;;;;;;;;;;;;;22.29;64.43;99911.44;4986543;28;20467;-83
2022/05/25 08:23:58;;;;;;;;;;;;;;;22.55;64.52;99915.28;4999743;28;19917;-83
2022/05/25 08:26:23;;;;;;;;;;;;;;;22.61;63.73;99916.72;4989988;28;19918;-83
2022/05/25 08:28:49;;;;;;;;;;;;;;;22.52;63.48;99910.97;4990061;28;20363;-83
2022/05/25 08:31:14;;;;;;;;;;;;;;;22.25;63.82;99917.97;4989535;28;19917;-83
2022/05/25 08:33:40;;;;;;;;;;;;;;;22.34;64.04;99923.69;4988878;28;19921;-83
2022/05/25 08:36:06;;;;;;;;;;;;;;;23.07;63.29;99924.59;4971172;28;19922;-83
2022/05/25 08:38:32;;;;;;;;;;;;;;;23.06;61.54;99933.63;4989261;28;19940;-83
2022/05/25 08:40:58;;;;;;;;;;;;;;;22.91;61.20;99935.47;4988736;28;20730;-83
2022/05/25 08:43:27;;;;;;;;;;;;;;;22.93;61.25;99938.06;4989198;28;19917;-84
2022/05/25 08:45:55;;;;;;;;;;;;;;;23.21;60.29;99940.75;4988807;28;20491;-83
2022/05/25 08:48:22;;;;;;;;;;;;;;;23.62;60.04;99944.47;4988478;28;20632;-83
2022/05/25 08:50:53;;;;;;;;;;;;;;;23.75;59.24;99933.72;4988738;28;19913;-82
2022/05/25 08:53:20;;;;;;;;;;;;;;;23.78;58.22;99934.38;5005614;28;19917;-81
2022/05/25 08:55:54;;;;;;;;;;;;;;;23.87;58.82;99942.88;5008201;28;20028;-83
2022/05/25 08:58:21;;;;;;;;;;;;;;;23.93;57.65;99937.06;5008285;28;19927;-83
2022/05/25 09:00:47;;;;;;;;;;;;;;;24.04;57.41;99933.66;5007246;28;20410;-82
2022/05/25 09:03:22;;;;;;;;;;;;;;;23.91;58.95;99937.19;5007910;28;19917;-83
2022/05/25 09:05:59;;;;;;;;;;;;;;;24.26;57.89;99943.84;5006930;28;19961;-83
2022/05/25 09:08:42;;;;;;;;;;;;;;;24.46;57.50;99934.38;5007014;28;20409;-81
2022/05/25 09:11:11;;;;;;;;;;;;;;;24.51;55.78;99923.28;5006971;28;19927;-80
2022/05/25 09:13:40;;;;;;;;;;;;;;;24.37;55.91;99927.78;5007306;28;19928;-80
2022/05/25 09:16:17;;;;;;;;;;;;;;;24.67;55.57;99923.97;5008316;28;20545;-81
2022/05/25 09:19:06;;;;;;;;;;;;;;;24.68;54.79;99925.69;5006726;28;19921;-80
2022/05/25 09:21:33;;;;;;;;;;;;;;;24.55;55.91;99925.66;5007521;28;19924;-80
2022/05/25 09:24:08;;;;;;;;;;;;;;;24.66;55.61;99914.16;5007816;28;19997;-80
2022/05/25 09:26:33;;;;;;;;;;;;;;;24.10;57.00;99919.78;5007950;28;19913;-80
2022/05/25 09:29:01;;;;;;;;;;;;;;;24.20;56.36;99917.31;5006121;28;19929;-81
2022/05/25 09:31:31;;;;;;;;;;;;;;;24.31;56.50;99914.72;5007518;28;19983;-81
2022/05/25 09:33:58;;;;;;;;;;;;;;;24.29;55.84;99911.28;5007720;28;19962;-81
2022/05/25 09:36:27;;;;;;;;;;;;;;;24.72;55.32;99920.97;5007752;28;19914;-80
2022/05/25 09:39:04;;;;;;;;;;;;;;;24.82;54.11;99913.91;5007577;28;19917;-79
2022/05/25 09:41:31;;;;;;;;;;;;;;;25.13;53.67;99928.78;5007132;28;19921;-79
2022/05/25 09:44:02;;;;;;;;;;;;;;;25.28;54.52;99920.56;5007569;28;20071;-79
2022/05/25 09:46:34;;;;;;;;;;;;;;;25.46;52.51;99923.78;5006877;28;19921;-80
2022/05/25 09:49:02;;;;;;;;;;;;;;;25.54;52.70;99918.66;5007309;28;19918;-80
2022/05/25 09:51:36;;;;;;;;;;;;;;;25.22;52.39;99912.91;5006914;28;19921;-81
2022/05/25 09:54:19;;;;;;;;;;;;;;;25.22;52.60;99913.75;5007339;28;19999;-79
2022/05/25 09:56:50;;;;;;;;;;;;;;;25.10;53.56;99906.53;5007448;28;19918;-79
2022/05/25 09:59:29;;;;;;;;;;;;;;;25.35;54.91;99911.06;5007135;28;19917;-81
2022/05/25 10:01:54;;;;;;;;;;;;;;;25.52;52.63;99913.38;5007387;28;19979;-79
2022/05/25 10:04:52;;;;;;;;;;;;;;;25.75;52.20;99910.81;5007073;28;19921;-79
2022/05/25 10:07:19;;;;;;;;;;;;;;;25.89;53.08;99907.06;5007089;28;20023;-83
2022/05/25 10:09:48;;;;;;;;;;;;;;;25.51;52.22;99914.34;5007484;28;19921;-79
2022/05/25 10:12:22;;;;;;;;;;;;;;;25.63;52.48;99914.44;5007831;28;19929;-81
2022/05/25 10:14:56;;;;;;;;;;;;;;;25.54;52.35;99910.56;5007289;28;19921;-81
2022/05/25 10:17:41;;;;;;;;;;;;;;;25.72;50.61;99903.78;5008388;28;19917;-80
2022/05/25 10:20:22;;;;;;;;;;;;;;;25.90;50.93;99896.16;5011043;28;19917;-82
2022/05/25 10:22:48;;;;;;;;;;;;;;;26.19;50.03;99894.94;5010919;28;20322;-80
2022/05/25 10:25:27;;;;;;;;;;;;;;;26.47;49.80;99890.06;5010748;28;20383;-81
2022/05/25 10:27:53;;;;;;;;;;;;;;;26.86;48.48;99896.88;5010736;28;19917;-81
2022/05/25 10:36:50;;;;;;;;;;;;;;;26.80;48.90;99903.66;5010644;28;19955;-82
2022/05/25 10:39:28;;;;;;;;;;;;;;;26.77;48.48;99892.22;4956503;28;19917;-82
2022/05/25 10:41:59;;;;;;;;;;;;;;;26.18;50.10;99888.66;5010572;28;19917;-81
2022/05/25 10:44:25;;;;;;;;;;;;;;;25.85;50.65;99887.50;5010675;28;19918;-83
2022/05/25 10:46:55;;;;;;;;;;;;;;;25.85;52.47;99889.38;5010348;28;19921;-82
2022/05/25 10:49:24;;;;;;;;;;;;;;;26.11;50.90;99881.16;5010602;28;19917;-83
2022/05/25 10:51:52;;;;;;;;;;;;;;;25.83;51.51;99878.69;5010570;28;19925;-81
2022/05/25 10:57:05;;;;;;;;;;;;;;;26.01;51.89;99875.56;5009790;28;20403;-82
2022/05/25 10:59:36;;;;;;;;;;;;;;;26.29;50.71;99873.44;5010322;28;20403;-82
2022/05/25 11:02:26;;;;;;;;;;;;;;;26.06;51.36;99865.28;5008409;28;20024;-82
2022/05/25 11:04:52;;;;;;;;;;;;;;;25.77;52.76;99875.59;5008707;28;19987;-82
2022/05/25 11:07:37;;;;;;;;;;;;;;;26.01;51.89;99881.84;5009529;28;19925;-83
2022/05/25 11:10:17;;;;;;;;;;;;;;;25.87;51.95;99877.47;5009315;28;19914;-82
2022/05/25 11:12:57;;;;;;;;;;;;;;;26.04;52.63;99873.50;5009167;28;19921;-83
2022/05/25 11:15:22;;;;;;;;;;;;;;;25.98;52.41;99882.09;5009827;28;19917;-81
2022/05/25 11:17:51;;;;;;;;;;;;;;;26.16;51.50;99873.53;5009634;28;19917;-82
2022/05/25 11:20:19;;;;;;;;;;;;;;;26.06;51.26;99868.84;5008703;28;20012;-81
2022/05/25 11:22:44;;;;;;;;;;;;;;;25.97;53.20;99869.50;5009916;28;19960;-82
2022/05/25 11:25:28;;;;;;;;;;;;;;;26.47;51.69;99872.00;5008351;28;20006;-81
2022/05/25 11:28:12;;;;;;;;;;;;;;;26.55;51.62;99868.69;5008327;28;19921;-81
2022/05/25 11:30:44;;;;;;;;;;;;;;;26.70;49.54;99859.38;5009764;28;19917;-81
2022/05/25 11:33:12;;;;;;;;;;;;;;;26.47;51.02;99872.00;5008974;28;19925;-81
2022/05/25 11:35:56;;;;;;;;;;;;;;;26.76;51.04;99863.44;5009836;28;19940;-81
2022/05/25 11:38:24;;;;;;;;;;;;;;;26.98;50.85;99863.41;5008235;28;19921;-80
2022/05/25 11:40:50;;;;;;;;;;;;;;;27.11;49.58;99857.88;5009216;28;19964;-79
2022/05/25 11:43:21;;;;;;;;;;;;;;;27.46;50.79;99851.44;5009192;28;20391;-82
2022/05/25 11:45:58;;;;;;;;;;;;;;;27.35;50.40;99846.06;5008551;28;19917;-81
2022/05/25 11:48:34;;;;;;;;;;;;;;;27.37;50.52;99833.22;5009148;28;19921;-82
2022/05/25 11:51:18;;;;;;;;;;;;;;;27.24;50.89;99838.78;5009190;28;19914;-82
2022/05/25 11:53:45;;;;;;;;;;;;;;;27.30;49.41;99835.56;5009131;28;19917;-81
2022/05/25 11:56:28;;;;;;;;;;;;;;;27.21;49.01;99844.44;5009267;28;19925;-81
2022/05/25 11:58:56;;;;;;;;;;;;;;;27.23;49.40;99834.34;4989642;28;19997;-82
2022/05/25 12:01:43;;;;;;;;;;;;;;;27.03;49.70;99846.81;5008695;28;20587;-83
2022/05/25 12:04:11;;;;;;;;;;;;;;;26.98;49.68;99847.19;5008823;28;19913;-82
2022/05/25 12:06:48;;;;;;;;;;;;;;;27.03;50.62;99848.66;5008329;28;20422;-81
2022/05/25 12:09:22;;;;;;;;;;;;;;;27.45;49.13;99848.84;5008619;28;19917;-82
2022/05/25 12:11:54;;;;;;;;;;;;;;;27.87;47.79;99838.97;5008489;28;20064;-82
2022/05/25 12:14:36;;;;;;;;;;;;;;;28.18;46.92;99840.94;4990142;28;20331;-82
2022/05/25 12:17:20;;;;;;;;;;;;;;;28.10;46.98;99835.28;5009268;28;19964;-82
2022/05/25 12:19:45;;;;;;;;;;;;;;;27.66;48.86;99828.06;5008040;28;19921;-82
2022/05/25 12:22:14;;;;;;;;;;;;;;;27.49;50.80;99820.53;5009134;28;19918;-82
2022/05/25 12:24:41;;;;;;;;;;;;;;;27.64;49.16;99815.66;5008747;28;19917;-82
2022/05/25 12:27:11;;;;;;;;;;;;;;;27.91;48.81;99826.00;5007856;28;20458;-82
2022/05/25 12:29:47;;;;;;;;;;;;;;;27.79;48.71;99827.91;5008847;28;19913;-82
2022/05/25 12:32:13;;;;;;;;;;;;;;;27.58;49.19;99821.59;5008023;28;19921;-81
2022/05/25 12:34:43;;;;;;;;;;;;;;;27.99;47.81;99812.69;5007670;28;20426;-82
2022/05/25 12:37:09;;;;;;;;;;;;;;;28.42;48.35;99810.78;5008557;28;19967;-81
2022/05/25 12:39:47;;;;;;;;;;;;;;;28.75;47.12;99806.97;5007213;28;19983;-82
2022/05/25 12:42:24;;;;;;;;;;;;;;;28.46;47.57;99801.38;5008644;28;20010;-82
2022/05/25 12:50:43;;;;;;;;;;;;;;;27.84;49.24;99803.13;5008002;28;19920;-81
2022/05/25 12:53:25;;;;;;;;;;;;;;;27.73;50.04;99812.19;5008488;28;19924;-81
2022/05/25 12:55:58;;;;;;;;;;;;;;;27.97;49.41;99809.22;5007779;28;19920;-81
2022/05/25 12:58:35;;;;;;;;;;;;;;;27.95;49.43;99807.63;5008102;28;19918;-82
2022/05/25 13:01:08;;;;;;;;;;;;;;;27.99;49.31;99801.84;5008160;28;19917;-81
2022/05/25 13:03:54;;;;;;;;;;;;;;;27.73;51.58;99798.63;5008274;28;19914;-82
2022/05/25 13:06:23;;;;;;;;;;;;;;;27.58;50.65;99795.38;4974191;28;19928;-82
2022/05/25 13:08:49;;;;;;;;;;;;;;;27.49;50.56;99805.13;4987461;28;19917;-82
2022/05/25 13:11:33;;;;;;;;;;;;;;;27.77;51.68;99808.19;4988332;28;19920;-81
2022/05/25 13:13:59;;;;;;;;;;;;;;;28.21;50.43;99805.41;4988462;28;19921;-82
2022/05/25 13:16:40;;;;;;;;;;;;;;;28.43;48.35;99795.38;4988111;28;19921;-81
2022/05/25 13:19:16;;;;;;;;;;;;;;;28.61;48.18;99792.91;4987793;28;19917;-82
2022/05/25 13:21:42;;;;;;;;;;;;;;;28.48;48.46;99785.81;4988130;28;19940;-81
2022/05/25 13:24:17;;;;;;;;;;;;;;;27.89;50.17;99773.78;4988262;28;19917;-82
2022/05/25 13:26:50;;;;;;;;;;;;;;;27.87;51.14;99779.34;4988304;28;19918;-82
2022/05/25 13:29:23;;;;;;;;;;;;;;;27.48;50.92;99780.88;5002410;28;19925;-82